createdAt,value
2019-03-08T00:00:02.505Z,99.90
2019-03-08T00:03:26.336Z,99.90
2019-03-08T00:06:50.027Z,99.90
2019-03-08T00:10:13.775Z,99.90
2019-03-08T00:13:37.685Z,99.90
2019-03-08T00:17:02.433Z,99.90
2019-03-08T00:20:26.511Z,99.90
2019-03-08T00:23:50.146Z,99.90
2019-03-08T00:27:13.972Z,99.90
2019-03-08T00:30:37.918Z,99.90
2019-03-08T00:34:01.640Z,99.90
2019-03-08T00:37:25.508Z,99.90
2019-03-08T00:40:49.283Z,99.90
2019-03-08T00:44:13.021Z,99.90
2019-03-08T00:47:36.890Z,99.90
2019-03-08T00:51:00.630Z,99.90
2019-03-08T00:54:24.656Z,99.90
2019-03-08T00:57:48.405Z,99.90
2019-03-08T01:01:12.363Z,99.90
2019-03-08T01:04:36.248Z,99.90
2019-03-08T01:08:00.304Z,99.90
2019-03-08T01:11:24.346Z,99.90
2019-03-08T01:14:48.426Z,99.90
2019-03-08T01:18:12.549Z,99.90
2019-03-08T01:21:36.329Z,99.90
2019-03-08T01:25:00.306Z,99.90
2019-03-08T01:28:24.096Z,99.90
2019-03-08T01:31:47.907Z,99.90
2019-03-08T01:35:11.755Z,99.90
2019-03-08T01:38:35.538Z,99.90
2019-03-08T01:41:59.314Z,99.90
2019-03-08T01:45:23.223Z,99.90
2019-03-08T01:48:46.903Z,99.90
2019-03-08T01:52:10.643Z,99.90
2019-03-08T01:55:34.418Z,99.90
2019-03-08T01:58:58.171Z,99.90
2019-03-08T02:02:22.016Z,99.90
2019-03-08T02:05:46.105Z,99.90
2019-03-08T02:09:09.912Z,99.90
2019-03-08T02:12:34.374Z,99.90
2019-03-08T02:15:58.145Z,99.90
2019-03-08T02:19:21.843Z,99.90
2019-03-08T02:22:45.606Z,99.90
2019-03-08T02:26:09.536Z,99.90
2019-03-08T02:29:33.243Z,99.90
2019-03-08T02:32:57.043Z,99.90
2019-03-08T02:36:20.920Z,99.90
2019-03-08T02:39:44.666Z,99.90
2019-03-08T02:43:13.451Z,99.90
2019-03-08T02:46:37.831Z,99.90
2019-03-08T02:50:01.582Z,99.90
2019-03-08T02:53:25.335Z,99.90
2019-03-08T02:56:49.151Z,99.90
2019-03-08T03:00:15.217Z,99.90
2019-03-08T03:03:39.098Z,99.90
2019-03-08T03:07:03.084Z,99.90
2019-03-08T03:10:27.002Z,99.90
2019-03-08T03:13:50.718Z,99.90
2019-03-08T03:17:15.142Z,99.90
2019-03-08T03:20:39.021Z,99.90
2019-03-08T03:24:02.911Z,99.90
2019-03-08T03:27:26.686Z,99.90
2019-03-08T03:30:50.607Z,99.90
2019-03-08T03:34:14.341Z,99.90
2019-03-08T03:37:38.125Z,99.90
2019-03-08T03:41:02.302Z,99.90
2019-03-08T03:44:26.385Z,99.90
2019-03-08T03:47:50.616Z,99.90
2019-03-08T03:51:14.646Z,99.90
2019-03-08T03:54:38.575Z,99.90
2019-03-08T03:58:02.538Z,99.90
2019-03-08T04:01:30.841Z,99.90
2019-03-08T04:04:55.345Z,99.90
2019-03-08T04:08:19.143Z,99.90
2019-03-08T04:11:42.895Z,99.90
2019-03-08T04:15:09.797Z,99.90
2019-03-08T04:18:33.624Z,99.90
2019-03-08T04:21:58.410Z,99.90
2019-03-08T04:25:22.283Z,99.90
2019-03-08T04:28:46.090Z,99.90
2019-03-08T04:32:10.183Z,99.90
2019-03-08T04:35:33.895Z,99.90
2019-03-08T04:38:57.740Z,99.90
2019-03-08T04:42:21.471Z,99.90
2019-03-08T04:45:45.397Z,99.90
2019-03-08T04:49:09.468Z,99.90
2019-03-08T04:52:33.253Z,99.90
2019-03-08T04:55:57.035Z,99.90
2019-03-08T04:59:20.829Z,99.90
2019-03-08T05:02:44.564Z,99.90
2019-03-08T05:06:08.283Z,99.90
2019-03-08T05:09:31.989Z,99.90
2019-03-08T05:12:56.500Z,99.90
2019-03-08T05:16:20.419Z,99.90
2019-03-08T05:19:44.266Z,99.90
2019-03-08T05:23:08.932Z,99.90
2019-03-08T05:26:32.663Z,99.90
2019-03-08T05:29:56.508Z,99.90
2019-03-08T05:33:20.303Z,99.90
2019-03-08T05:36:44.086Z,99.90
2019-03-08T05:40:10.229Z,99.90
2019-03-08T05:43:33.938Z,99.90
2019-03-08T05:46:57.639Z,99.90
2019-03-08T05:50:21.703Z,99.90
2019-03-08T05:53:45.976Z,99.90
2019-03-08T05:57:09.722Z,99.90
2019-03-08T06:00:34.979Z,99.90
2019-03-08T06:04:00.571Z,99.90
2019-03-08T06:07:24.577Z,99.90
2019-03-08T06:10:48.536Z,99.90
2019-03-08T06:14:12.298Z,99.90
2019-03-08T06:17:36.098Z,99.90
2019-03-08T06:20:59.758Z,99.90
2019-03-08T06:24:23.735Z,99.90
2019-03-08T06:27:47.750Z,99.90
2019-03-08T06:31:11.525Z,99.90
2019-03-08T06:34:35.310Z,99.90
2019-03-08T06:37:59.203Z,99.90
2019-03-08T06:41:22.919Z,99.90
2019-03-08T06:44:46.935Z,99.90
2019-03-08T06:48:10.735Z,99.90
2019-03-08T06:51:34.399Z,99.90
2019-03-08T06:54:58.241Z,99.90
2019-03-08T06:58:23.703Z,99.90
2019-03-08T07:01:47.448Z,99.90
2019-03-08T07:05:11.311Z,99.90
2019-03-08T07:08:35.308Z,99.90
2019-03-08T07:11:59.128Z,99.90
2019-03-08T07:15:22.914Z,95.30
2019-03-08T07:18:46.595Z,96.70
2019-03-08T07:22:11.929Z,94.30
2019-03-08T07:25:54.535Z,73.60
2019-03-08T07:29:23.105Z,66.30
2019-03-08T07:32:51.150Z,59.60
2019-03-08T07:36:22.182Z,57.30
2019-03-08T07:39:47.596Z,60.10
2019-03-08T07:43:16.038Z,58.30
2019-03-08T07:46:54.656Z,57.10
2019-03-08T07:50:29.193Z,54.00
2019-03-08T07:53:54.648Z,55.50
2019-03-08T07:57:22.664Z,54.10
2019-03-08T08:00:54.415Z,56.00
2019-03-08T08:04:19.873Z,54.70
2019-03-08T08:08:01.791Z,54.80
2019-03-08T08:11:33.508Z,59.70
2019-03-08T08:15:01.291Z,64.20
2019-03-08T08:18:42.117Z,61.40
2019-03-08T08:22:19.556Z,59.00
2019-03-08T08:26:03.171Z,53.70
2019-03-08T08:29:46.353Z,52.60
2019-03-08T08:33:11.665Z,56.00
2019-03-08T08:36:43.111Z,57.30
2019-03-08T08:40:11.180Z,55.60
2019-03-08T08:43:36.647Z,52.20
2019-03-08T08:47:11.276Z,50.70
2019-03-08T08:50:45.366Z,49.30
2019-03-08T08:54:27.396Z,49.00
2019-03-08T08:58:09.613Z,47.90
2019-03-08T09:01:37.988Z,47.80
2019-03-08T09:05:06.403Z,51.20
2019-03-08T09:08:38.013Z,53.50
2019-03-08T09:12:20.038Z,53.40
2019-03-08T09:15:51.713Z,53.40
2019-03-08T09:19:29.520Z,55.30
2019-03-08T09:22:57.826Z,56.40
2019-03-08T09:26:26.396Z,54.90
2019-03-08T09:30:03.938Z,50.90
2019-03-08T09:33:38.454Z,49.30
2019-03-08T09:37:10.335Z,47.60
2019-03-08T09:40:52.055Z,52.80
2019-03-08T09:44:20.274Z,51.40
2019-03-08T09:47:45.805Z,46.60
2019-03-08T09:51:17.064Z,48.70
2019-03-08T09:54:42.579Z,50.10
2019-03-08T09:58:08.706Z,48.10
2019-03-08T10:01:40.005Z,48.30
2019-03-08T10:05:06.216Z,44.50
2019-03-08T10:08:31.717Z,46.30
2019-03-08T10:11:57.229Z,48.50
2019-03-08T10:15:32.068Z,47.60
2019-03-08T10:19:03.225Z,44.60
2019-03-08T10:22:37.923Z,44.70
2019-03-08T10:26:03.283Z,42.00
2019-03-08T10:29:32.396Z,41.30
2019-03-08T10:32:57.895Z,41.90
2019-03-08T10:36:23.497Z,41.20
2019-03-08T10:39:54.871Z,45.10
2019-03-08T10:43:27.165Z,46.20
2019-03-08T10:47:09.053Z,42.40
2019-03-08T10:50:46.503Z,43.70
2019-03-08T10:54:12.032Z,45.60
2019-03-08T10:57:37.404Z,45.10
2019-03-08T11:01:11.921Z,43.90
2019-03-08T11:04:47.171Z,44.00
2019-03-08T11:08:29.943Z,41.00
2019-03-08T11:11:59.155Z,45.40
2019-03-08T11:15:36.644Z,42.30
2019-03-08T11:19:08.430Z,41.00
2019-03-08T11:22:46.063Z,41.00
2019-03-08T11:26:29.450Z,43.10
2019-03-08T11:29:55.261Z,45.20
2019-03-08T11:33:34.472Z,46.20
2019-03-08T11:36:59.952Z,43.50
2019-03-08T11:40:33.639Z,41.60
2019-03-08T11:44:06.206Z,45.30
2019-03-08T11:47:49.288Z,45.10
2019-03-08T11:51:31.172Z,47.10
2019-03-08T11:55:02.476Z,45.80
2019-03-08T11:58:34.043Z,42.70
2019-03-08T12:02:01.825Z,40.00
2019-03-08T12:05:36.111Z,44.80
2019-03-08T12:09:07.146Z,45.30
2019-03-08T12:12:32.607Z,42.90
2019-03-08T12:16:04.276Z,42.90
2019-03-08T12:19:29.585Z,43.70
2019-03-08T12:23:07.380Z,44.90
2019-03-08T12:26:38.743Z,44.10
2019-03-08T12:30:07.151Z,45.30
2019-03-08T12:33:32.516Z,47.70
2019-03-08T12:37:07.283Z,49.60
2019-03-08T12:40:32.525Z,51.00
2019-03-08T12:44:16.368Z,50.60
2019-03-08T12:47:44.487Z,49.80
2019-03-08T12:51:10.017Z,46.50
2019-03-08T12:54:35.493Z,44.60
2019-03-08T12:58:03.716Z,45.90
2019-03-08T13:01:48.268Z,44.20
2019-03-08T13:05:30.316Z,45.60
2019-03-08T13:09:01.189Z,44.40
2019-03-08T13:12:25.143Z,43.50
2019-03-08T13:15:48.883Z,46.30
2019-03-08T13:19:12.700Z,46.40
2019-03-08T13:22:36.775Z,46.60
2019-03-08T13:26:00.574Z,47.20
2019-03-08T13:29:24.417Z,50.90
2019-03-08T13:32:48.368Z,50.80
2019-03-08T13:36:12.196Z,50.70
2019-03-08T13:39:36.195Z,50.90
2019-03-08T13:42:59.930Z,52.00
2019-03-08T13:46:23.746Z,52.00
2019-03-08T13:49:47.702Z,54.30
2019-03-08T13:53:11.583Z,54.90
2019-03-08T13:56:35.467Z,53.50
2019-03-08T14:00:00.292Z,53.90
2019-03-08T14:03:24.287Z,56.20
2019-03-08T14:06:48.021Z,56.30
2019-03-08T14:10:14.963Z,56.70
2019-03-08T14:13:40.950Z,57.00
2019-03-08T14:17:04.785Z,54.10
2019-03-08T14:20:29.211Z,51.10
2019-03-08T14:23:52.954Z,49.50
2019-03-08T14:27:17.071Z,50.30
2019-03-08T14:30:57.375Z,50.60
2019-03-08T14:34:16.732Z,50.50
2019-03-08T14:37:40.995Z,50.60
2019-03-08T14:41:18.703Z,50.50
2019-03-08T14:44:44.653Z,50.50
2019-03-08T14:48:09.491Z,50.50
2019-03-08T14:51:33.914Z,49.10
2019-03-08T14:54:57.721Z,50.20
2019-03-08T14:58:21.479Z,49.80
2019-03-08T15:01:45.339Z,50.10
2019-03-08T15:05:11.516Z,48.80
2019-03-08T15:08:35.160Z,49.20
2019-03-08T15:11:59.508Z,49.40
2019-03-08T15:15:24.903Z,50.10
2019-03-08T15:18:48.739Z,51.10
2019-03-08T15:22:13.611Z,51.10
2019-03-08T15:25:37.373Z,50.10
2019-03-08T15:29:03.658Z,50.30
2019-03-08T15:32:27.433Z,51.00
2019-03-08T15:35:51.238Z,52.00
2019-03-08T15:39:15.023Z,52.80
2019-03-08T15:42:39.355Z,51.80
2019-03-08T15:46:03.166Z,53.80
2019-03-08T15:49:30.589Z,53.90
2019-03-08T15:52:52.773Z,55.30
2019-03-08T15:56:16.531Z,56.80
2019-03-08T15:59:40.338Z,56.50
2019-03-08T16:03:04.321Z,58.40
2019-03-08T16:06:28.234Z,57.70
2019-03-08T16:09:52.118Z,58.80
2019-03-08T16:13:15.892Z,59.80
2019-03-08T16:16:39.983Z,59.10
2019-03-08T16:20:04.889Z,60.20
2019-03-08T16:23:28.728Z,60.50
2019-03-08T16:26:52.609Z,60.70
2019-03-08T16:30:20.620Z,62.10
2019-03-08T16:33:48.393Z,65.50
2019-03-08T16:37:16.241Z,85.10
2019-03-08T16:40:50.658Z,97.40
2019-03-08T16:44:34.262Z,99.90
2019-03-08T16:48:14.245Z,99.90
2019-03-08T16:51:51.435Z,99.90
2019-03-08T16:55:17.831Z,99.90
2019-03-08T16:58:49.265Z,99.90
2019-03-08T17:02:26.701Z,99.90
2019-03-08T17:05:52.174Z,99.90
2019-03-08T17:09:33.904Z,99.90
2019-03-08T17:13:08.339Z,99.90
2019-03-08T17:16:33.867Z,99.90
2019-03-08T17:19:59.338Z,99.90
2019-03-08T17:23:40.210Z,99.90
2019-03-08T17:27:08.393Z,99.90
2019-03-08T17:30:33.931Z,99.90
2019-03-08T17:34:07.907Z,99.90
2019-03-08T17:37:51.479Z,99.90
2019-03-08T17:41:32.943Z,99.90
2019-03-08T17:44:58.373Z,99.90
2019-03-08T17:48:33.735Z,99.90
2019-03-08T17:52:15.041Z,99.90
2019-03-08T17:55:40.560Z,94.80
2019-03-08T17:59:22.083Z,94.00
2019-03-08T18:02:50.775Z,91.60
2019-03-08T18:06:17.274Z,91.20
2019-03-08T18:09:45.701Z,90.30
2019-03-08T18:13:11.221Z,90.10
2019-03-08T18:16:39.714Z,85.70
2019-03-08T18:20:08.578Z,84.40
2019-03-08T18:23:33.920Z,86.60
2019-03-08T18:27:15.057Z,84.60
2019-03-08T18:30:58.127Z,83.30
2019-03-08T18:34:30.375Z,81.40
2019-03-08T18:37:56.976Z,81.60
2019-03-08T18:41:35.895Z,80.60
2019-03-08T18:45:02.251Z,81.10
2019-03-08T18:48:33.323Z,82.70
2019-03-08T18:52:03.592Z,80.10
2019-03-08T18:55:39.465Z,79.90
2019-03-08T18:59:17.213Z,81.10
2019-03-08T19:03:10.026Z,79.70
2019-03-08T19:06:46.894Z,80.60
2019-03-08T19:10:30.439Z,82.30
2019-03-08T19:14:08.883Z,81.60
2019-03-08T19:17:54.515Z,81.60
2019-03-08T19:21:37.333Z,81.70
2019-03-08T19:25:14.193Z,83.00
2019-03-08T19:28:46.762Z,84.20
2019-03-08T19:32:19.439Z,86.30
2019-03-08T19:35:56.556Z,85.10
2019-03-08T19:39:22.054Z,88.50
2019-03-08T19:42:56.608Z,90.00
2019-03-08T19:46:39.232Z,90.80
2019-03-08T19:50:07.757Z,93.90
2019-03-08T19:53:48.779Z,94.40
2019-03-08T19:57:17.299Z,97.60
2019-03-08T20:00:59.888Z,99.90
2019-03-08T20:04:28.085Z,99.90
2019-03-08T20:07:59.336Z,99.90
2019-03-08T20:11:31.207Z,99.90
2019-03-08T20:14:56.729Z,99.90
2019-03-08T20:18:38.613Z,99.90
2019-03-08T20:22:06.989Z,99.90
2019-03-08T20:25:32.512Z,99.90
2019-03-08T20:29:00.651Z,99.90
2019-03-08T20:32:31.727Z,99.90
2019-03-08T20:36:12.448Z,99.90
2019-03-08T20:39:42.527Z,99.90
2019-03-08T20:43:13.701Z,99.90
2019-03-08T20:46:39.349Z,99.90
2019-03-08T20:50:03.820Z,99.90
2019-03-08T20:53:27.650Z,99.90
2019-03-08T20:56:51.410Z,99.90
2019-03-08T21:00:17.096Z,99.90
2019-03-08T21:03:41.069Z,99.90
2019-03-08T21:07:05.507Z,99.90
2019-03-08T21:10:29.213Z,99.90
2019-03-08T21:13:53.859Z,99.90
2019-03-08T21:17:17.733Z,99.90
2019-03-08T21:20:41.841Z,99.90
2019-03-08T21:24:05.680Z,99.90
2019-03-08T21:27:29.589Z,99.90
2019-03-08T21:30:53.561Z,99.90
2019-03-08T21:34:17.528Z,99.90
2019-03-08T21:37:41.965Z,99.90
2019-03-08T21:41:12.626Z,99.90
2019-03-08T21:44:37.098Z,99.90
2019-03-08T21:48:04.391Z,99.90
2019-03-08T21:51:28.312Z,99.90
2019-03-08T21:54:52.619Z,99.90
2019-03-08T21:58:16.611Z,99.90
2019-03-08T22:01:40.464Z,99.90
2019-03-08T22:05:04.333Z,99.90
2019-03-08T22:08:28.324Z,99.90
2019-03-08T22:11:52.309Z,99.90
2019-03-08T22:15:16.471Z,99.90
2019-03-08T22:18:40.320Z,99.90
2019-03-08T22:22:04.472Z,99.90
2019-03-08T22:25:28.272Z,99.90
2019-03-08T22:28:52.240Z,99.90
2019-03-08T22:32:16.087Z,99.90
2019-03-08T22:35:39.851Z,99.90
2019-03-08T22:39:05.004Z,99.90
2019-03-08T22:42:29.730Z,99.90
2019-03-08T22:45:53.611Z,99.90
2019-03-08T22:49:17.911Z,99.90
2019-03-08T22:52:41.749Z,99.90
2019-03-08T22:56:05.714Z,99.90
2019-03-08T22:59:29.744Z,99.90
2019-03-08T23:02:53.718Z,99.90
2019-03-08T23:06:17.733Z,99.90
2019-03-08T23:09:41.656Z,99.90
2019-03-08T23:13:05.549Z,99.90
2019-03-08T23:16:29.728Z,99.90
2019-03-08T23:19:53.641Z,99.90
2019-03-08T23:23:18.251Z,99.90
2019-03-08T23:26:50.015Z,99.90
2019-03-08T23:30:15.418Z,99.90
2019-03-08T23:33:39.187Z,99.90
2019-03-08T23:37:03.016Z,99.90
2019-03-08T23:40:26.963Z,99.90
2019-03-08T23:43:50.820Z,99.90
2019-03-08T23:47:14.690Z,99.90
2019-03-08T23:50:38.400Z,99.90
2019-03-08T23:54:03.722Z,99.90
2019-03-08T23:57:27.793Z,99.90
